Time;durP1;ratioP1;P1;durP2;ratioP2;P2;SDS_P1;SDS_P2;PMS_P1;PMS_P2;Temp;Humidity;BMP_temperature;BMP_pressure;BME280_temperature;BME280_humidity;BME280_pressure;Samples;Min_cycle;Max_cycle;Signal;HPM_P1;HPM_P2
2022/06/24 00:00:08;;;;;;;8.10;3.60;;;20.80;97.60;;;;;;4964451;23;20071;-84
2022/06/24 00:02:34;;;;;;;8.70;3.42;;;20.80;97.40;;;;;;4951342;29;20036;-82
2022/06/24 00:05:03;;;;;;;12.13;3.78;;;20.70;97.70;;;;;;4942201;29;20395;-84
2022/06/24 00:07:28;;;;;;;6.60;3.20;;;20.60;98.10;;;;;;4941382;29;20114;-83
2022/06/24 00:09:54;;;;;;;4.40;3.00;;;20.50;98.50;;;;;;4941442;29;20063;-83
2022/06/24 00:12:24;;;;;;;7.82;3.42;;;20.50;98.70;;;;;;4940535;29;20103;-84
2022/06/24 00:15:00;;;;;;;6.80;3.35;;;20.40;98.80;;;;;;4943450;29;20035;-83
2022/06/24 00:17:29;;;;;;;6.65;3.50;;;20.40;99.10;;;;;;4944081;29;20086;-83
2022/06/24 00:19:59;;;;;;;7.00;3.80;;;20.40;99.10;;;;;;4945267;29;20042;-82
2022/06/24 00:22:28;;;;;;;11.93;4.53;;;20.40;99.20;;;;;;4957332;29;20051;-86
2022/06/24 00:25:08;;;;;;;10.02;4.20;;;20.30;99.50;;;;;;4931133;29;20024;-84
2022/06/24 00:27:35;;;;;;;7.93;3.28;;;20.30;99.90;;;;;;4941257;29;20039;-84
2022/06/24 00:30:14;;;;;;;11.15;3.92;;;20.30;99.90;;;;;;4952150;29;20024;-83
2022/06/24 00:32:41;;;;;;;9.90;3.92;;;20.30;99.90;;;;;;4956104;28;20103;-86
2022/06/24 00:35:16;;;;;;;8.30;4.50;;;20.30;99.90;;;;;;4957160;28;20046;-82
2022/06/24 00:37:43;;;;;;;;;;;20.30;99.90;;;;;;4957433;29;20031;-82
2022/06/24 00:40:11;;;;;;;10.23;4.38;;;20.20;99.90;;;;;;4957492;29;19918;-82
2022/06/24 00:42:39;;;;;;;11.65;4.28;;;20.10;99.90;;;;;;4956900;29;20035;-83
2022/06/24 00:45:19;;;;;;;8.35;4.60;;;20.00;99.90;;;;;;4957311;29;20028;-83
2022/06/24 00:47:48;;;;;;;9.60;4.55;;;19.90;99.90;;;;;;4956754;29;20080;-82
2022/06/24 00:50:28;;;;;;;9.70;5.15;;;19.80;99.90;;;;;;4957128;29;20031;-82
2022/06/24 00:53:00;;;;;;;10.77;4.47;;;19.80;99.90;;;;;;4955429;29;20032;-83
2022/06/24 00:55:30;;;;;;;7.97;4.97;;;19.80;99.90;;;;;;4956248;29;20040;-83
2022/06/24 00:58:00;;;;;;;8.23;5.28;;;19.70;99.90;;;;;;4955761;29;20034;-87
2022/06/24 01:00:28;;;;;;;10.88;5.13;;;19.70;99.90;;;;;;4948901;29;20034;-86
2022/06/24 01:03:01;;;;;;;11.63;5.85;;;19.70;99.90;;;;;;4948350;29;20079;-84
2022/06/24 01:05:28;;;;;;;13.60;5.57;;;19.70;99.90;;;;;;4946597;29;20086;-84
2022/06/24 01:07:54;;;;;;;8.20;5.70;;;19.70;99.90;;;;;;4948385;29;20118;-85
2022/06/24 01:10:21;;;;;;;12.85;6.90;;;19.70;99.90;;;;;;4946957;29;20036;-84
2022/06/24 01:12:46;;;;;;;11.07;5.80;;;19.60;99.90;;;;;;4946356;29;20083;-85
2022/06/24 01:15:12;;;;;;;13.70;6.88;;;19.60;99.90;;;;;;4945904;29;20079;-84
2022/06/24 01:17:39;;;;;;;16.83;6.50;;;19.60;99.90;;;;;;4947445;29;20079;-84
2022/06/24 01:20:09;;;;;;;17.77;6.35;;;19.60;99.90;;;;;;4947293;29;20038;-83
2022/06/24 01:22:35;;;;;;;11.55;5.90;;;19.60;99.90;;;;;;4945992;29;20028;-84
2022/06/24 01:25:02;;;;;;;13.90;6.70;;;19.50;99.90;;;;;;4948741;29;20031;-83
2022/06/24 01:27:27;;;;;;;11.20;6.47;;;19.50;99.90;;;;;;4952084;29;20039;-85
2022/06/24 01:29:53;;;;;;;11.50;6.47;;;19.60;99.90;;;;;;4952733;29;20087;-84
2022/06/24 01:32:19;;;;;;;13.65;6.40;;;19.50;99.90;;;;;;4955282;29;20031;-84
2022/06/24 01:34:45;;;;;;;14.32;6.80;;;19.60;99.90;;;;;;4952422;29;20031;-83
2022/06/24 01:37:12;;;;;;;8.73;6.45;;;19.60;99.90;;;;;;4947907;29;20035;-82
2022/06/24 01:39:38;;;;;;;12.27;6.60;;;19.70;99.90;;;;;;4933535;29;20019;-84
2022/06/24 01:42:04;;;;;;;12.23;6.63;;;19.80;99.90;;;;;;4947109;29;20024;-84
2022/06/24 01:44:30;;;;;;;12.70;6.07;;;19.80;99.90;;;;;;4945792;29;20039;-83
2022/06/24 01:46:56;;;;;;;10.43;6.25;;;19.80;99.90;;;;;;4941060;29;20028;-83
2022/06/24 01:49:22;;;;;;;11.10;6.85;;;19.80;99.90;;;;;;4943760;29;20400;-83
2022/06/24 01:51:50;;;;;;;11.95;6.85;;;19.80;99.90;;;;;;4945462;29;20024;-84
2022/06/24 01:54:16;;;;;;;10.25;6.38;;;19.70;99.90;;;;;;4942902;29;20036;-84
2022/06/24 01:56:42;;;;;;;12.18;6.88;;;19.60;99.90;;;;;;4944486;29;20023;-83
2022/06/24 01:59:08;;;;;;;15.93;6.38;;;19.60;99.90;;;;;;4952632;29;20011;-83
2022/06/24 02:01:35;;;;;;;11.27;7.20;;;19.50;99.90;;;;;;4951410;29;20063;-83
2022/06/24 02:04:01;;;;;;;12.10;6.32;;;19.50;99.90;;;;;;4949341;29;20411;-84
2022/06/24 02:06:27;;;;;;;13.73;6.47;;;19.40;99.90;;;;;;4950408;29;20020;-85
2022/06/24 02:08:53;;;;;;;8.68;6.75;;;19.30;99.90;;;;;;4948197;29;20039;-83
2022/06/24 02:14:07;;;;;;;9.82;6.80;;;19.20;99.90;;;;;;4958560;29;20031;-84
2022/06/24 02:16:33;;;;;;;13.32;7.13;;;19.20;99.90;;;;;;4958987;29;20020;-82
2022/06/24 02:19:00;;;;;;;14.80;6.70;;;19.20;99.90;;;;;;4956861;29;20028;-84
2022/06/24 02:21:26;;;;;;;11.95;6.88;;;19.10;99.90;;;;;;4955602;29;20053;-84
2022/06/24 02:23:53;;;;;;;17.65;6.63;;;19.10;99.90;;;;;;4956820;29;20023;-85
2022/06/24 02:26:19;;;;;;;13.52;7.07;;;19.10;99.90;;;;;;4957888;29;20066;-83
2022/06/24 02:28:45;;;;;;;17.63;6.82;;;19.10;99.90;;;;;;4940575;29;20515;-81
2022/06/24 02:31:11;;;;;;;12.88;7.25;;;19.10;99.90;;;;;;4940588;29;20024;-84
2022/06/24 02:33:38;;;;;;;11.52;6.80;;;19.20;99.90;;;;;;4939058;29;20036;-83
2022/06/24 02:36:05;;;;;;;15.70;7.80;;;19.20;99.90;;;;;;4940665;29;20075;-84
2022/06/24 02:38:32;;;;;;;12.30;6.70;;;19.10;99.90;;;;;;4940897;29;20035;-84
2022/06/24 02:40:58;;;;;;;24.05;7.05;;;19.10;99.90;;;;;;4940881;29;20059;-86
2022/06/24 02:43:35;;;;;;;12.75;7.78;;;19.20;99.90;;;;;;4926255;29;20031;-84
2022/06/24 02:46:06;;;;;;;13.77;8.10;;;19.20;99.90;;;;;;4942713;29;20095;-85
2022/06/24 02:48:34;;;;;;;11.02;7.47;;;19.10;99.90;;;;;;4944218;29;20091;-83
2022/06/24 02:51:09;;;;;;;11.90;8.13;;;19.10;99.90;;;;;;4944213;29;20027;-84
2022/06/24 02:53:36;;;;;;;14.80;7.90;;;19.00;99.90;;;;;;4945806;29;20036;-82
2022/06/24 02:56:07;;;;;;;12.02;8.55;;;19.00;99.90;;;;;;4951190;29;20027;-83
2022/06/24 02:58:33;;;;;;;16.33;8.52;;;19.00;99.90;;;;;;4960187;29;20023;-85
2022/06/24 03:01:00;;;;;;;11.65;8.57;;;19.00;99.90;;;;;;4946804;29;20043;-83
2022/06/24 03:03:26;;;;;;;9.93;8.45;;;19.00;99.90;;;;;;4945606;29;20024;-84
2022/06/24 03:05:53;;;;;;;10.80;7.88;;;19.00;99.90;;;;;;4942241;29;20063;-84
2022/06/24 03:08:22;;;;;;;12.70;8.25;;;19.00;99.90;;;;;;4942753;29;20049;-83
2022/06/24 03:10:49;;;;;;;13.93;8.25;;;19.00;99.90;;;;;;4943995;29;20036;-83
2022/06/24 03:13:15;;;;;;;13.40;7.97;;;19.00;99.90;;;;;;4941870;29;20086;-82
2022/06/24 03:15:43;;;;;;;13.43;7.97;;;19.00;99.90;;;;;;4942555;29;20372;-83
2022/06/24 03:18:11;;;;;;;11.63;8.65;;;19.10;99.90;;;;;;4941612;29;20083;-83
2022/06/24 03:20:37;;;;;;;14.55;8.70;;;19.10;99.90;;;;;;4950549;29;20083;-84
2022/06/24 03:23:04;;;;;;;12.23;8.82;;;19.10;99.90;;;;;;4954229;29;20055;-83
2022/06/24 03:25:30;;;;;;;12.50;8.50;;;19.10;99.90;;;;;;4952702;29;20030;-84
2022/06/24 03:27:56;;;;;;;13.73;8.85;;;19.00;99.90;;;;;;4949244;28;20083;-84
2022/06/24 03:30:22;;;;;;;15.85;8.52;;;19.00;99.90;;;;;;4957823;28;20036;-82
2022/06/24 03:32:48;;;;;;;11.20;8.02;;;19.00;99.90;;;;;;4955264;29;20023;-83
2022/06/24 03:35:13;;;;;;;12.80;9.23;;;18.90;99.90;;;;;;4949000;29;20027;-83
2022/06/24 03:37:39;;;;;;;13.43;9.85;;;18.90;99.90;;;;;;4948514;29;20058;-84
2022/06/24 03:40:06;;;;;;;10.32;7.22;;;18.90;99.90;;;;;;4955660;29;20043;-83
2022/06/24 03:42:32;;;;;;;15.35;9.27;;;18.90;99.90;;;;;;4956978;29;20091;-84
2022/06/24 03:44:57;;;;;;;15.45;9.35;;;18.90;99.90;;;;;;4952527;29;20031;-83
2022/06/24 03:47:23;;;;;;;17.17;9.20;;;18.90;99.90;;;;;;4943948;29;20045;-84
2022/06/24 03:49:52;;;;;;;10.90;8.57;;;18.90;99.90;;;;;;4943851;29;20658;-83
2022/06/24 03:52:18;;;;;;;12.82;9.05;;;19.00;99.90;;;;;;4948843;28;20042;-81
2022/06/24 03:54:45;;;;;;;17.88;9.10;;;19.00;99.90;;;;;;4956528;29;20027;-82
2022/06/24 03:57:10;;;;;;;11.05;8.63;;;19.00;99.90;;;;;;4947774;29;20040;-83
2022/06/24 03:59:36;;;;;;;13.20;9.48;;;19.10;99.90;;;;;;4940287;29;20028;-83
2022/06/24 04:02:02;;;;;;;15.13;9.68;;;19.10;99.90;;;;;;4932432;29;20055;-83
2022/06/24 04:04:28;;;;;;;13.05;9.90;;;19.10;99.90;;;;;;4930880;29;20016;-81
2022/06/24 04:06:54;;;;;;;16.27;10.13;;;19.10;99.90;;;;;;4925389;29;20034;-83
2022/06/24 04:09:20;;;;;;;16.10;9.52;;;19.10;99.90;;;;;;4934716;29;20032;-81
2022/06/24 04:11:46;;;;;;;15.95;10.15;;;19.20;99.90;;;;;;4931936;29;20095;-82
2022/06/24 04:14:11;;;;;;;16.67;8.95;;;19.30;99.90;;;;;;4921039;29;20024;-81
2022/06/24 04:16:37;;;;;;;15.93;9.65;;;19.30;99.90;;;;;;4922980;29;20028;-82
2022/06/24 04:19:03;;;;;;;12.00;9.02;;;19.40;99.90;;;;;;4923116;29;20024;-83
2022/06/24 04:21:31;;;;;;;16.08;9.27;;;19.40;99.90;;;;;;4923078;29;20059;-81
2022/06/24 04:23:57;;;;;;;16.85;9.85;;;19.50;99.90;;;;;;4926131;29;20024;-83
2022/06/24 04:26:22;;;;;;;15.10;9.35;;;19.60;99.90;;;;;;4928245;29;20028;-82
2022/06/24 04:28:50;;;;;;;12.00;9.15;;;19.60;99.90;;;;;;4923140;29;20412;-83
2022/06/24 04:31:16;;;;;;;14.55;9.32;;;19.70;99.90;;;;;;4924004;29;20072;-83
2022/06/24 04:33:42;;;;;;;14.80;8.68;;;19.70;99.90;;;;;;4922432;29;20540;-82
2022/06/24 04:36:12;;;;;;;14.73;9.85;;;19.70;99.90;;;;;;4924221;29;20036;-82
2022/06/24 04:38:39;;;;;;;16.27;9.40;;;19.80;99.90;;;;;;4927476;29;20024;-82
2022/06/24 04:41:16;;;;;;;17.30;8.82;;;19.90;99.90;;;;;;4926832;29;20028;-83
2022/06/24 04:43:43;;;;;;;14.77;9.82;;;19.90;99.90;;;;;;4926516;29;20036;-83
2022/06/24 04:46:09;;;;;;;20.10;9.73;;;20.00;99.90;;;;;;4927520;29;20059;-83
2022/06/24 04:48:36;;;;;;;18.95;8.60;;;20.20;99.90;;;;;;4927187;29;20106;-83
2022/06/24 04:51:02;;;;;;;11.80;8.80;;;20.30;99.90;;;;;;4925400;29;20032;-84
2022/06/24 04:53:29;;;;;;;18.60;8.80;;;20.60;99.90;;;;;;4925967;29;20084;-82
2022/06/24 04:55:55;;;;;;;14.40;8.32;;;21.10;99.90;;;;;;4927587;29;20024;-83
2022/06/24 04:58:21;;;;;;;11.20;8.20;;;21.70;99.90;;;;;;4939806;29;20036;-83
2022/06/24 05:00:46;;;;;;;12.40;7.75;;;22.00;99.90;;;;;;4929595;29;20043;-83
2022/06/24 05:03:12;;;;;;;16.15;8.13;;;22.10;99.90;;;;;;4929325;29;20112;-83
2022/06/24 05:05:38;;;;;;;14.32;7.85;;;21.90;99.90;;;;;;4925867;29;20059;-84
2022/06/24 05:08:04;;;;;;;16.17;7.90;;;21.80;99.90;;;;;;4925343;29;20028;-83
2022/06/24 05:10:30;;;;;;;16.67;8.10;;;21.80;99.90;;;;;;4923072;29;20032;-83
2022/06/24 05:12:56;;;;;;;12.15;8.20;;;21.80;99.90;;;;;;4924804;29;20092;-83
2022/06/24 05:15:21;;;;;;;14.50;8.20;;;21.80;99.90;;;;;;4923840;29;20020;-85
2022/06/24 05:17:47;;;;;;;15.93;8.98;;;21.70;99.90;;;;;;4922457;29;20139;-83
2022/06/24 05:20:13;;;;;;;13.68;7.95;;;21.70;99.90;;;;;;4923640;29;20028;-83
2022/06/24 05:22:39;;;;;;;15.10;8.35;;;21.70;99.90;;;;;;4931595;29;20092;-82
2022/06/24 05:25:07;;;;;;;13.95;8.70;;;21.70;99.90;;;;;;4937815;29;20084;-82
2022/06/24 05:27:33;;;;;;;14.25;8.50;;;21.60;99.90;;;;;;4936877;29;20071;-81
2022/06/24 05:29:59;;;;;;;15.48;8.40;;;21.60;99.90;;;;;;4933793;29;20032;-85
2022/06/24 05:32:25;;;;;;;16.35;8.70;;;21.70;99.90;;;;;;4935786;29;20096;-83
2022/06/24 05:34:51;;;;;;;13.68;8.45;;;21.70;99.90;;;;;;4937028;29;20048;-84
2022/06/24 05:37:17;;;;;;;13.63;8.77;;;21.70;99.90;;;;;;4931278;29;20040;-84
2022/06/24 05:39:43;;;;;;;12.52;8.20;;;21.70;99.90;;;;;;4930438;29;20111;-84
2022/06/24 05:42:08;;;;;;;12.10;7.93;;;21.80;99.90;;;;;;4923130;29;20051;-84
2022/06/24 05:44:34;;;;;;;16.38;8.45;;;21.90;99.90;;;;;;4924444;29;20032;-83
2022/06/24 05:47:00;;;;;;;15.05;7.90;;;22.10;99.90;;;;;;4924724;29;20413;-85
2022/06/24 05:49:26;;;;;;;15.18;7.78;;;22.20;99.90;;;;;;4923250;29;20036;-84
2022/06/24 05:51:52;;;;;;;16.10;7.60;;;22.40;99.90;;;;;;4922911;29;20036;-84
2022/06/24 05:57:02;;;;;;;14.52;7.50;;;22.50;99.90;;;;;;4924940;29;20036;-84
2022/06/24 05:59:28;;;;;;;15.57;8.20;;;22.60;99.90;;;;;;4927072;29;20039;-84
2022/06/24 06:01:54;;;;;;;12.70;7.75;;;22.70;99.90;;;;;;4976011;23;20075;-84
2022/06/24 06:04:20;;;;;;;10.82;7.32;;;22.80;99.90;;;;;;4953740;29;20072;-81
2022/06/24 06:06:46;;;;;;;15.40;8.00;;;22.90;99.90;;;;;;4959572;28;20099;-84
2022/06/24 06:09:11;;;;;;;15.93;7.72;;;23.10;99.90;;;;;;4959062;28;20038;-82
2022/06/24 06:11:38;;;;;;;11.07;7.13;;;23.40;99.90;;;;;;4959068;28;20092;-83
2022/06/24 06:14:03;;;;;;;10.27;6.43;;;23.50;99.90;;;;;;4960029;28;20028;-84
2022/06/24 06:16:29;;;;;;;10.52;6.60;;;23.70;99.90;;;;;;4954423;28;20036;-83
2022/06/24 06:18:55;;;;;;;11.50;6.35;;;23.90;99.90;;;;;;4955824;28;20072;-84
2022/06/24 06:21:21;;;;;;;11.13;6.45;;;23.90;99.90;;;;;;4957884;29;20122;-87
2022/06/24 06:23:47;;;;;;;16.88;5.80;;;23.90;99.90;;;;;;4957252;29;20035;-85
2022/06/24 06:26:14;;;;;;;15.55;6.80;;;23.90;99.90;;;;;;4953471;28;20035;-84
2022/06/24 06:28:41;;;;;;;16.95;7.10;;;23.70;99.90;;;;;;4956766;29;20042;-86
2022/06/24 06:31:09;;;;;;;12.65;6.53;;;23.70;99.90;;;;;;4958129;29;20046;-85
2022/06/24 06:33:34;;;;;;;11.63;6.43;;;23.70;99.90;;;;;;4958039;29;20024;-88
2022/06/24 06:36:09;;;;;;;10.80;6.20;;;23.60;99.90;;;;;;4955772;29;20059;-88
2022/06/24 06:38:35;;;;;;;12.65;6.63;;;23.70;99.90;;;;;;4950834;29;20047;-86
2022/06/24 06:41:01;;;;;;;9.85;5.38;;;23.60;99.90;;;;;;4954181;29;20060;-87
2022/06/24 06:43:28;;;;;;;9.35;5.90;;;23.60;99.90;;;;;;4954024;29;20055;-84
2022/06/24 06:45:54;;;;;;;16.00;6.10;;;23.60;99.90;;;;;;4954730;29;20050;-86
2022/06/24 06:48:21;;;;;;;13.73;5.80;;;23.60;99.90;;;;;;4952314;29;20036;-87
2022/06/24 06:50:46;;;;;;;9.38;5.65;;;23.70;99.90;;;;;;4949400;29;20028;-86
2022/06/24 06:53:12;;;;;;;9.05;5.40;;;23.80;99.90;;;;;;4950718;29;20091;-87
2022/06/24 06:55:38;;;;;;;7.43;5.35;;;23.90;99.90;;;;;;4952554;29;20028;-85
2022/06/24 06:58:05;;;;;;;10.35;5.13;;;23.90;99.90;;;;;;4953082;29;20038;-85
2022/06/24 07:00:30;;;;;;;10.57;5.85;;;24.10;99.90;;;;;;4951142;29;20063;-85
2022/06/24 07:02:57;;;;;;;9.82;5.47;;;24.10;99.90;;;;;;4949077;29;20112;-88
2022/06/24 07:05:25;;;;;;;12.98;5.32;;;24.10;99.90;;;;;;4950344;29;20413;-85
2022/06/24 07:07:50;;;;;;;10.30;5.15;;;24.10;99.90;;;;;;4947822;29;20067;-85
2022/06/24 07:10:16;;;;;;;9.77;5.47;;;24.20;99.90;;;;;;4931380;29;20027;-85
2022/06/24 07:12:42;;;;;;;9.10;4.40;;;24.10;99.90;;;;;;4948509;29;20030;-84
2022/06/24 07:15:08;;;;;;;11.55;5.07;;;24.20;99.90;;;;;;4942097;29;20051;-83
2022/06/24 07:17:34;;;;;;;11.80;5.50;;;24.30;99.90;;;;;;4936307;29;20111;-85
2022/06/24 07:20:00;;;;;;;10.40;4.88;;;24.30;99.90;;;;;;4932219;29;20047;-84
2022/06/24 07:22:25;;;;;;;9.57;4.80;;;24.40;99.90;;;;;;4926987;29;20071;-85
2022/06/24 07:24:51;;;;;;;9.68;4.88;;;24.50;99.90;;;;;;4927490;29;20503;-86
2022/06/24 07:27:17;;;;;;;7.25;4.85;;;24.60;99.90;;;;;;4927674;29;20148;-85
2022/06/24 07:29:43;;;;;;;8.35;5.32;;;24.60;99.90;;;;;;4926052;29;20028;-86
2022/06/24 07:32:12;;;;;;;9.25;4.70;;;24.80;99.90;;;;;;4926782;29;20032;-86
2022/06/24 07:34:38;;;;;;;8.18;4.45;;;24.80;99.90;;;;;;4909885;29;20031;-85
2022/06/24 07:37:04;;;;;;;8.32;5.15;;;24.90;99.90;;;;;;4942947;29;20031;-85
2022/06/24 07:39:31;;;;;;;8.05;4.80;;;24.90;99.90;;;;;;4947328;29;20034;-84
2022/06/24 07:41:57;;;;;;;9.65;4.70;;;25.00;99.90;;;;;;4943876;29;20477;-85
2022/06/24 07:44:24;;;;;;;10.38;5.20;;;25.10;99.90;;;;;;4928775;29;20027;-85
2022/06/24 07:46:50;;;;;;;13.65;5.70;;;25.20;99.90;;;;;;4934466;29;20116;-86
2022/06/24 07:49:16;;;;;;;8.32;4.68;;;25.30;99.90;;;;;;4954324;29;20087;-84
2022/06/24 07:51:43;;;;;;;17.60;5.45;;;25.30;99.90;;;;;;4957524;29;20079;-84
2022/06/24 07:54:08;;;;;;;12.90;4.60;;;25.30;99.90;;;;;;4950162;29;20020;-84
2022/06/24 07:59:21;;;;;;;9.40;5.07;;;25.20;99.90;;;;;;4947268;29;20028;-84
2022/06/24 08:01:47;;;;;;;8.82;4.60;;;25.30;99.90;;;;;;4949975;29;20028;-84
2022/06/24 08:04:14;;;;;;;9.70;4.45;;;25.20;99.90;;;;;;4958865;29;20083;-84
2022/06/24 08:06:46;;;;;;;7.43;4.30;;;25.10;99.90;;;;;;4957684;29;20087;-86
2022/06/24 08:09:14;;;;;;;13.93;4.07;;;25.10;99.90;;;;;;4952784;29;20083;-88
2022/06/24 08:11:41;;;;;;;7.88;4.80;;;25.20;99.90;;;;;;4954168;29;20024;-85
2022/06/24 08:14:07;;;;;;;12.60;4.75;;;25.30;99.90;;;;;;4951442;29;20039;-85
2022/06/24 08:16:33;;;;;;;13.43;4.55;;;25.40;99.90;;;;;;4952129;29;20377;-86
2022/06/24 08:18:59;;;;;;;9.45;4.75;;;25.50;99.90;;;;;;4947300;29;20448;-85
2022/06/24 08:21:25;;;;;;;7.97;4.65;;;25.60;99.90;;;;;;4939792;29;20039;-86
2022/06/24 08:23:51;;;;;;;10.48;4.60;;;25.80;99.90;;;;;;4924868;29;20040;-86
2022/06/24 08:26:17;;;;;;;6.93;4.60;;;25.90;99.90;;;;;;4927797;29;20027;-84
2022/06/24 08:28:44;;;;;;;5.88;3.83;;;26.10;99.70;;;;;;4937897;29;20032;-85
2022/06/24 08:31:14;;;;;;;8.15;4.57;;;26.30;99.10;;;;;;4939189;29;20036;-89
2022/06/24 08:33:40;;;;;;;7.60;4.53;;;26.50;98.70;;;;;;4941411;29;20024;-90
2022/06/24 08:38:51;;;;;;;12.63;4.70;;;26.70;98.20;;;;;;4987192;23;20067;-90
2022/06/24 08:41:23;;;;;;;7.93;4.80;;;26.90;98.10;;;;;;4960024;28;20023;-90
2022/06/24 08:43:51;;;;;;;7.85;4.57;;;27.10;98.10;;;;;;4943478;28;20133;-89
2022/06/24 08:46:21;;;;;;;10.77;5.10;;;27.40;97.90;;;;;;4960340;28;20016;-91
2022/06/24 08:48:49;;;;;;;10.25;4.60;;;27.80;97.40;;;;;;4944227;28;20023;-90
2022/06/24 08:51:15;;;;;;;10.63;4.85;;;27.90;97.10;;;;;;4958877;28;20083;-92
2022/06/24 08:53:46;;;;;;;6.78;4.38;;;27.70;97.20;;;;;;4939094;29;20058;-90
2022/06/24 08:56:52;;;;;;;8.80;4.65;;;27.70;97.60;;;;;;4952715;29;20043;-90
2022/06/24 09:00:02;;;;;;;9.88;4.72;;;28.00;97.70;;;;;;4934740;29;20055;-90
2022/06/24 09:02:32;;;;;;;7.22;4.32;;;27.90;97.80;;;;;;4950010;29;20035;-89
2022/06/24 09:05:18;;;;;;;8.77;4.50;;;27.80;97.30;;;;;;4926945;29;20021;-89
2022/06/24 09:07:47;;;;;;;11.05;4.32;;;28.00;97.50;;;;;;4933209;29;20036;-90
2022/06/24 09:10:14;;;;;;;11.10;4.18;;;28.30;97.00;;;;;;4931925;29;20028;-89
2022/06/24 09:12:46;;;;;;;8.30;4.18;;;28.70;96.10;;;;;;4921450;29;20133;-89
2022/06/24 09:15:22;;;;;;;4.40;3.33;;;28.80;95.00;;;;;;4924865;29;20025;-90
2022/06/24 09:17:55;;;;;;;9.90;3.20;;;28.60;95.10;;;;;;4919409;29;20057;-89
2022/06/24 09:20:36;;;;;;;10.18;3.60;;;28.70;93.50;;;;;;4949834;29;20071;-89
2022/06/24 09:23:09;;;;;;;6.10;2.97;;;28.60;92.50;;;;;;4926308;29;20114;-89
2022/06/24 09:25:47;;;;;;;4.40;2.87;;;28.30;92.40;;;;;;4941587;29;20059;-89
2022/06/24 09:28:24;;;;;;;5.53;3.00;;;28.10;92.60;;;;;;4955468;28;20031;-91
2022/06/24 09:31:40;;;;;;;9.52;2.90;;;27.80;92.20;;;;;;4952864;28;20079;-89
2022/06/24 09:34:19;;;;;;;5.97;3.15;;;27.60;92.40;;;;;;4946071;28;20044;-88
2022/06/24 09:36:55;;;;;;;5.85;3.40;;;27.60;92.40;;;;;;4956394;28;20142;-90
2022/06/24 09:39:32;;;;;;;5.18;2.63;;;27.60;92.40;;;;;;4935488;29;20024;-89
2022/06/24 09:42:01;;;;;;;5.85;2.92;;;27.80;91.80;;;;;;4940423;29;20021;-90
2022/06/24 09:44:47;;;;;;;6.75;3.10;;;28.10;91.80;;;;;;4941458;29;20056;-91
2022/06/24 09:47:16;;;;;;;5.35;3.13;;;27.90;91.60;;;;;;4925439;29;20032;-89
2022/06/24 09:49:56;;;;;;;7.50;2.88;;;28.10;92.10;;;;;;4927409;29;20046;-89
2022/06/24 09:52:27;;;;;;;;;;;28.40;91.60;;;;;;4955439;28;20082;-89
2022/06/24 09:55:28;;;;;;;14.45;3.28;;;28.70;91.40;;;;;;4950692;29;19934;-89
2022/06/24 09:57:55;;;;;;;7.38;3.15;;;28.60;91.40;;;;;;4946063;29;20083;-87
2022/06/24 10:03:09;;;;;;;7.28;3.58;;;28.50;91.50;;;;;;4942334;28;20039;-88
2022/06/24 10:05:40;;;;;;;5.63;2.88;;;28.90;91.20;;;;;;4933082;29;20043;-89
2022/06/24 10:08:19;;;;;;;5.82;2.95;;;29.40;90.60;;;;;;4938731;29;20067;-90
2022/06/24 10:10:53;;;;;;;6.47;2.78;;;29.70;90.20;;;;;;4943824;29;20020;-89
2022/06/24 10:13:27;;;;;;;5.80;3.30;;;30.10;89.90;;;;;;4941670;29;20028;-88
2022/06/24 10:15:55;;;;;;;4.97;2.50;;;30.70;88.80;;;;;;4942140;29;20100;-90
2022/06/24 10:18:27;;;;;;;10.52;3.25;;;31.30;86.90;;;;;;4943539;29;20061;-88
2022/06/24 10:20:58;;;;;;;8.10;2.92;;;31.10;85.90;;;;;;4938494;29;20036;-90
2022/06/24 10:23:41;;;;;;;4.90;2.90;;;30.10;86.80;;;;;;4939118;28;20032;-88
2022/06/24 10:26:11;;;;;;;5.97;3.13;;;30.30;86.90;;;;;;4953390;28;20096;-89
2022/06/24 10:28:59;;;;;;;5.57;2.70;;;31.20;86.30;;;;;;4938553;29;20051;-87
2022/06/24 10:31:49;;;;;;;7.43;3.20;;;31.70;83.10;;;;;;4941110;29;20047;-89
2022/06/24 10:34:28;;;;;;;6.13;3.10;;;31.70;84.30;;;;;;4933358;29;20043;-90
2022/06/24 10:36:58;;;;;;;9.27;2.97;;;32.60;81.30;;;;;;4943855;29;20083;-89
2022/06/24 10:39:27;;;;;;;8.88;3.08;;;32.70;78.90;;;;;;4939450;29;20051;-90
2022/06/24 10:42:02;;;;;;;5.03;2.38;;;33.00;78.50;;;;;;4943223;29;20028;-89
2022/06/24 10:44:30;;;;;;;6.25;2.80;;;33.60;76.90;;;;;;4934711;29;20036;-87
2022/06/24 10:47:05;;;;;;;8.30;3.33;;;34.30;75.50;;;;;;4938215;29;20044;-89
2022/06/24 10:49:55;;;;;;;7.38;3.25;;;34.80;75.00;;;;;;4940145;29;20039;-89
2022/06/24 10:52:38;;;;;;;9.00;3.20;;;34.30;75.90;;;;;;4946113;29;20032;-90
2022/06/24 10:55:34;;;;;;;5.55;3.35;;;35.00;75.50;;;;;;4945112;29;20028;-89
2022/06/24 10:58:14;;;;;;;7.95;3.03;;;34.80;74.20;;;;;;4946822;29;20170;-89
2022/06/24 11:00:48;;;;;;;12.82;3.53;;;34.50;74.40;;;;;;4942909;29;20036;-89
2022/06/24 11:03:21;;;;;;;6.83;3.50;;;34.70;74.00;;;;;;4943245;29;20024;-89
2022/06/24 11:05:51;;;;;;;8.05;3.30;;;34.90;72.90;;;;;;4946338;29;20355;-88
2022/06/24 11:08:19;;;;;;;16.65;3.03;;;34.10;73.30;;;;;;4950616;29;20035;-88
2022/06/24 11:10:47;;;;;;;9.07;2.90;;;34.60;73.80;;;;;;4937864;29;20028;-90
2022/06/24 11:13:14;;;;;;;6.80;2.72;;;35.50;72.40;;;;;;4938427;29;20056;-89
2022/06/24 11:15:49;;;;;;;8.38;3.70;;;35.90;72.20;;;;;;4937973;29;20020;-89
2022/06/24 11:18:24;;;;;;;17.35;3.67;;;36.50;70.40;;;;;;4921283;29;20056;-89
2022/06/24 11:20:55;;;;;;;9.25;3.75;;;37.00;68.80;;;;;;4940905;29;20047;-89
2022/06/24 11:23:24;;;;;;;9.05;3.45;;;37.30;68.30;;;;;;4924634;29;20171;-89
2022/06/24 11:25:57;;;;;;;5.07;2.78;;;37.10;68.00;;;;;;4940221;29;20031;-90
2022/06/24 11:28:24;;;;;;;8.65;3.13;;;36.70;67.90;;;;;;4939661;29;20091;-89
2022/06/24 11:30:51;;;;;;;9.57;3.75;;;36.80;67.00;;;;;;4938888;29;20055;-89
2022/06/24 11:33:18;;;;;;;10.43;3.42;;;36.90;67.10;;;;;;4940969;29;20055;-90
2022/06/24 11:35:49;;;;;;;8.02;3.13;;;37.00;66.50;;;;;;4939902;29;20032;-90
2022/06/24 11:38:16;;;;;;;7.93;3.10;;;36.40;66.00;;;;;;4921685;29;20108;-88
2022/06/24 11:40:43;;;;;;;10.13;3.22;;;36.60;66.80;;;;;;4937741;29;20080;-90
2022/06/24 11:43:19;;;;;;;8.23;2.90;;;37.10;65.80;;;;;;4941961;29;20027;-88
2022/06/24 11:45:48;;;;;;;5.43;3.15;;;36.80;65.30;;;;;;4940832;29;20047;-89
2022/06/24 11:48:24;;;;;;;11.77;3.60;;;37.10;65.10;;;;;;4924951;29;20065;-89
2022/06/24 11:50:51;;;;;;;6.20;3.55;;;37.20;64.70;;;;;;4940711;29;20096;-89
2022/06/24 11:53:23;;;;;;;8.25;3.10;;;37.30;64.60;;;;;;4938357;29;20077;-88
2022/06/24 11:55:52;;;;;;;5.70;3.08;;;37.30;64.60;;;;;;4941323;29;20024;-88
2022/06/24 11:58:20;;;;;;;4.97;2.70;;;37.30;64.50;;;;;;4942383;29;20016;-89
2022/06/24 12:00:48;;;;;;;5.72;3.00;;;37.10;64.30;;;;;;4963724;23;20043;-85
2022/06/24 12:03:14;;;;;;;7.45;3.15;;;36.70;64.70;;;;;;4956541;28;20032;-85
2022/06/24 12:05:45;;;;;;;8.40;2.65;;;36.60;64.60;;;;;;4958007;29;20036;-84
2022/06/24 12:08:11;;;;;;;6.35;2.85;;;36.90;64.60;;;;;;4956660;29;20425;-86
2022/06/24 12:10:49;;;;;;;10.88;2.78;;;37.20;63.60;;;;;;4957966;29;20027;-86
2022/06/24 12:13:25;;;;;;;15.25;3.00;;;37.30;63.60;;;;;;4956777;29;20091;-84
2022/06/24 12:15:52;;;;;;;13.63;3.20;;;36.20;64.10;;;;;;4959953;28;20036;-84
2022/06/24 12:18:22;;;;;;;4.63;2.67;;;35.30;65.30;;;;;;4958007;28;20466;-84
2022/06/24 12:21:07;;;;;;;4.95;2.92;;;34.20;66.70;;;;;;4956819;29;20042;-83
2022/06/24 12:23:35;;;;;;;4.40;2.90;;;33.20;68.00;;;;;;4958213;29;20095;-83
2022/06/24 12:26:06;;;;;;;8.10;3.22;;;32.60;69.20;;;;;;4957494;29;20016;-84
2022/06/24 12:28:33;;;;;;;4.10;2.90;;;32.60;69.80;;;;;;4958729;29;20076;-83
2022/06/24 12:31:02;;;;;;;8.38;3.05;;;33.60;68.00;;;;;;4955147;29;20258;-84
2022/06/24 12:33:31;;;;;;;7.80;3.20;;;34.70;67.20;;;;;;4950659;29;20064;-84
2022/06/24 12:36:09;;;;;;;4.40;2.90;;;35.70;65.90;;;;;;4949824;29;20039;-84
2022/06/24 12:39:02;;;;;;;5.50;2.72;;;36.40;64.60;;;;;;4949872;29;20032;-86
2022/06/24 12:41:28;;;;;;;7.18;3.25;;;36.40;64.30;;;;;;4936584;29;20055;-84
2022/06/24 12:43:59;;;;;;;8.68;3.50;;;36.90;64.50;;;;;;4933686;29;20024;-84
2022/06/24 12:46:33;;;;;;;11.32;3.15;;;37.50;64.10;;;;;;4949787;29;20032;-84
2022/06/24 12:51:46;;;;;;;5.05;2.60;;;37.60;63.30;;;;;;4953511;29;20063;-84
2022/06/24 12:54:14;;;;;;;6.93;2.80;;;37.20;63.90;;;;;;4957682;28;20028;-85
2022/06/24 12:56:42;;;;;;;5.53;2.92;;;36.90;63.20;;;;;;4957406;28;20031;-84
2022/06/24 12:59:09;;;;;;;5.22;2.65;;;36.80;63.70;;;;;;4955107;29;20028;-84
2022/06/24 13:01:46;;;;;;;13.98;3.22;;;36.40;64.00;;;;;;4950603;29;20039;-84
2022/06/24 13:04:13;;;;;;;9.77;3.15;;;36.20;64.10;;;;;;4949505;29;20043;-86
2022/06/24 13:06:40;;;;;;;5.25;3.40;;;36.50;64.00;;;;;;4952983;29;20019;-85